Time;durP1;ratioP1;P1;durP2;ratioP2;P2;SDS_P1;SDS_P2;PMS_P1;PMS_P2;Temp;Humidity;BMP_temperature;BMP_pressure;BME280_temperature;BME280_humidity;BME280_pressure;Samples;Min_cycle;Max_cycle;Signal;HPM_P1;HPM_P2
2023/03/12 00:01:58;;;;;;;14.32;8.18;;;;;;;;;;5051931;28;20087;-62
2023/03/12 00:04:25;;;;;;;16.30;8.52;;;;;;;;;;5061839;28;20487;-63
2023/03/12 00:06:51;;;;;;;18.90;9.02;;;;;;;;;;5061302;28;20078;-64
2023/03/12 00:09:17;;;;;;;13.60;8.82;;;;;;;;;;5061866;28;20049;-63
2023/03/12 00:11:44;;;;;;;19.30;9.07;;;;;;;;;;5052092;28;20140;-63
2023/03/12 00:14:10;;;;;;;13.50;8.55;;;;;;;;;;5043123;28;20061;-63
2023/03/12 00:16:36;;;;;;;13.35;8.52;;;;;;;;;;5061325;28;20060;-63
2023/03/12 00:19:03;;;;;;;15.45;8.60;;;;;;;;;;5051365;28;20431;-64
2023/03/12 00:21:30;;;;;;;17.08;9.63;;;;;;;;;;5054719;28;20073;-63
2023/03/12 00:23:56;;;;;;;12.20;7.90;;;;;;;;;;5046351;28;20468;-63
2023/03/12 00:26:23;;;;;;;14.35;8.35;;;;;;;;;;5058143;28;20123;-63
2023/03/12 00:28:49;;;;;;;14.35;7.93;;;;;;;;;;5045883;28;20057;-63
2023/03/12 00:31:18;;;;;;;11.85;7.53;;;;;;;;;;5042559;28;20409;-63
2023/03/12 00:33:45;;;;;;;13.73;8.18;;;;;;;;;;5053480;28;20053;-63
2023/03/12 00:36:11;;;;;;;15.02;7.63;;;;;;;;;;5051008;28;20120;-63
2023/03/12 00:38:37;;;;;;;14.52;7.82;;;;;;;;;;5058312;28;20048;-63
2023/03/12 00:41:04;;;;;;;20.88;7.57;;;;;;;;;;5055299;28;20140;-63
2023/03/12 00:43:31;;;;;;;10.93;6.25;;;;;;;;;;5061967;28;20056;-63
2023/03/12 00:45:57;;;;;;;13.73;7.43;;;;;;;;;;5060146;28;20464;-63
2023/03/12 00:48:24;;;;;;;13.55;6.90;;;;;;;;;;5042548;28;20562;-63
2023/03/12 00:50:50;;;;;;;10.75;6.72;;;;;;;;;;5058371;28;20049;-64
2023/03/12 00:53:16;;;;;;;11.68;7.15;;;;;;;;;;5057580;28;20053;-63
2023/03/12 00:55:43;;;;;;;14.20;7.50;;;;;;;;;;5041534;28;20528;-62
2023/03/12 00:58:09;;;;;;;13.18;7.60;;;;;;;;;;5043044;28;20103;-63
2023/03/12 01:00:36;;;;;;;15.10;7.05;;;;;;;;;;5042939;28;20527;-63
2023/03/12 01:03:02;;;;;;;10.57;6.68;;;;;;;;;;5042107;28;20057;-63
2023/03/12 01:05:28;;;;;;;11.57;6.35;;;;;;;;;;5042522;28;20057;-63
2023/03/12 01:07:55;;;;;;;8.60;6.30;;;;;;;;;;5052001;28;20053;-64
2023/03/12 01:10:21;;;;;;;12.90;6.43;;;;;;;;;;5063582;28;20059;-63
2023/03/12 01:12:48;;;;;;;11.55;6.38;;;;;;;;;;5061409;28;20056;-64
2023/03/12 01:15:15;;;;;;;10.75;6.35;;;;;;;;;;5048804;28;20133;-64
2023/03/12 01:17:41;;;;;;;8.38;6.65;;;;;;;;;;5052447;28;20049;-66
2023/03/12 01:20:08;;;;;;;11.10;6.45;;;;;;;;;;5051271;28;20428;-63
2023/03/12 01:22:35;;;;;;;15.20;6.43;;;;;;;;;;5059972;28;20263;-63
2023/03/12 01:25:02;;;;;;;9.52;5.75;;;;;;;;;;5071022;28;20139;-63
2023/03/12 01:27:28;;;;;;;11.13;6.32;;;;;;;;;;5065326;28;20232;-64
2023/03/12 01:29:55;;;;;;;12.68;5.82;;;;;;;;;;5049605;28;20059;-63
2023/03/12 01:32:21;;;;;;;11.23;5.60;;;;;;;;;;5063073;28;20063;-63
2023/03/12 01:34:47;;;;;;;9.05;5.72;;;;;;;;;;5058658;28;20543;-64
2023/03/12 01:37:14;;;;;;;8.80;5.32;;;;;;;;;;5045585;28;20059;-64
2023/03/12 01:39:40;;;;;;;9.68;6.20;;;;;;;;;;5063358;28;20111;-63
2023/03/12 01:42:06;;;;;;;8.00;5.50;;;;;;;;;;5062652;28;20233;-63
2023/03/12 01:44:53;;;;;;;12.10;5.97;;;;;;;;;;5064891;28;20053;-63
2023/03/12 01:47:19;;;;;;;11.30;5.05;;;;;;;;;;5064497;28;20128;-63
2023/03/12 01:49:47;;;;;;;11.95;5.80;;;;;;;;;;5064327;28;20123;-63
2023/03/12 01:52:15;;;;;;;11.13;5.45;;;;;;;;;;5063617;28;20125;-63
2023/03/12 01:54:43;;;;;;;10.07;5.55;;;;;;;;;;5063493;28;20227;-63
2023/03/12 01:57:19;;;;;;;10.65;4.82;;;;;;;;;;5058346;28;20053;-63
2023/03/12 01:59:48;;;;;;;12.10;5.05;;;;;;;;;;5074178;28;20053;-63
2023/03/12 02:02:15;;;;;;;8.15;4.80;;;;;;;;;;5061496;28;20511;-63
2023/03/12 02:04:42;;;;;;;6.25;5.15;;;;;;;;;;5058888;28;20056;-63
2023/03/12 02:07:10;;;;;;;10.02;4.75;;;;;;;;;;5048642;28;20061;-63
2023/03/12 02:09:40;;;;;;;6.82;4.78;;;;;;;;;;5064560;28;20170;-63
2023/03/12 02:12:07;;;;;;;6.07;4.43;;;;;;;;;;5049468;28;20053;-63
2023/03/12 02:14:33;;;;;;;12.30;4.82;;;;;;;;;;5085516;28;20600;-62
2023/03/12 02:17:00;;;;;;;6.97;4.43;;;;;;;;;;5075686;28;20617;-64
2023/03/12 02:19:34;;;;;;;11.93;5.22;;;;;;;;;;5062255;28;20045;-63
2023/03/12 02:22:02;;;;;;;8.60;4.35;;;;;;;;;;5065888;28;20045;-64
2023/03/12 02:24:28;;;;;;;7.72;5.38;;;;;;;;;;5063732;28;20139;-63
2023/03/12 02:26:55;;;;;;;7.47;4.85;;;;;;;;;;5066594;28;20315;-63
2023/03/12 02:29:21;;;;;;;10.57;4.65;;;;;;;;;;5061090;28;20063;-62
2023/03/12 02:31:50;;;;;;;6.60;4.30;;;;;;;;;;5062415;28;20049;-63
2023/03/12 02:34:17;;;;;;;6.95;4.00;;;;;;;;;;5052341;28;20483;-63
2023/03/12 02:36:43;;;;;;;6.90;4.13;;;;;;;;;;5049103;28;20052;-63
2023/03/12 02:39:10;;;;;;;8.85;4.25;;;;;;;;;;5062221;28;20499;-63
2023/03/12 02:41:40;;;;;;;5.75;4.00;;;;;;;;;;5063615;28;20044;-63
2023/03/12 02:44:06;;;;;;;10.75;4.50;;;;;;;;;;5045430;28;20091;-63
2023/03/12 02:46:34;;;;;;;8.73;4.13;;;;;;;;;;5076309;28;20057;-63
2023/03/12 02:49:01;;;;;;;8.60;5.18;;;;;;;;;;5061470;28;20527;-63
2023/03/12 02:51:27;;;;;;;7.72;3.80;;;;;;;;;;5053066;28;20116;-63
2023/03/12 02:53:54;;;;;;;9.70;4.85;;;;;;;;;;5061072;28;20908;-63
2023/03/12 02:56:24;;;;;;;8.35;3.90;;;;;;;;;;5067898;28;20062;-62
2023/03/12 02:58:50;;;;;;;6.10;3.90;;;;;;;;;;5045299;28;20076;-63
2023/03/12 03:01:17;;;;;;;14.10;4.07;;;;;;;;;;5052339;28;20557;-63
2023/03/12 03:03:44;;;;;;;7.82;3.33;;;;;;;;;;5050971;28;20057;-64
2023/03/12 03:06:10;;;;;;;9.65;3.72;;;;;;;;;;5077686;28;20924;-63
2023/03/12 03:08:36;;;;;;;10.73;4.28;;;;;;;;;;5045707;28;20095;-63
2023/03/12 03:11:03;;;;;;;7.22;3.95;;;;;;;;;;5066085;28;20080;-63
2023/03/12 03:13:29;;;;;;;10.10;4.38;;;;;;;;;;5069661;28;20470;-63
2023/03/12 03:15:58;;;;;;;9.40;3.50;;;;;;;;;;5065052;28;20493;-63
2023/03/12 03:18:25;;;;;;;6.47;3.90;;;;;;;;;;5065334;28;20049;-63
2023/03/12 03:20:58;;;;;;;6.35;3.92;;;;;;;;;;5055988;28;20048;-63
2023/03/12 03:23:25;;;;;;;7.25;4.03;;;;;;;;;;5045819;28;20083;-63
2023/03/12 03:25:51;;;;;;;16.50;4.10;;;;;;;;;;5063610;28;20612;-63
2023/03/12 03:28:18;;;;;;;3.92;2.97;;;;;;;;;;5061122;28;20051;-64
2023/03/12 03:30:45;;;;;;;5.22;3.42;;;;;;;;;;5063875;28;20152;-63
2023/03/12 03:33:11;;;;;;;5.43;3.60;;;;;;;;;;5056268;28;20153;-63
2023/03/12 03:35:38;;;;;;;8.65;3.25;;;;;;;;;;5073573;28;20065;-63
2023/03/12 03:38:06;;;;;;;7.65;3.70;;;;;;;;;;5057184;28;20148;-63
2023/03/12 03:40:32;;;;;;;5.38;3.65;;;;;;;;;;5062504;28;20056;-63
2023/03/12 03:42:59;;;;;;;3.17;2.85;;;;;;;;;;5047308;28;20093;-63
2023/03/12 03:45:25;;;;;;;7.03;3.15;;;;;;;;;;5053711;28;20504;-64
2023/03/12 03:47:52;;;;;;;7.72;3.58;;;;;;;;;;5056417;28;20534;-63
2023/03/12 03:50:18;;;;;;;8.82;3.22;;;;;;;;;;5055468;28;20053;-64
2023/03/12 03:52:44;;;;;;;7.18;3.83;;;;;;;;;;5057777;28;20410;-63
2023/03/12 03:55:11;;;;;;;9.40;3.33;;;;;;;;;;5062003;28;20053;-63
2023/03/12 03:57:37;;;;;;;6.10;3.03;;;;;;;;;;5061205;28;20059;-64
2023/03/12 04:00:08;;;;;;;4.50;3.03;;;;;;;;;;5050810;28;20048;-63
2023/03/12 04:02:35;;;;;;;6.25;3.75;;;;;;;;;;5050496;28;20057;-63
2023/03/12 04:05:01;;;;;;;12.45;3.38;;;;;;;;;;5042264;28;20057;-63
2023/03/12 04:07:28;;;;;;;5.05;3.53;;;;;;;;;;5054954;28;20053;-63
2023/03/12 04:09:56;;;;;;;4.57;3.13;;;;;;;;;;5059678;28;20064;-63
2023/03/12 04:12:24;;;;;;;4.75;2.90;;;;;;;;;;5070811;28;20118;-63
2023/03/12 04:14:51;;;;;;;8.15;2.90;;;;;;;;;;5043443;28;20054;-63
2023/03/12 04:17:17;;;;;;;6.07;3.40;;;;;;;;;;5049791;28;20053;-63
2023/03/12 04:19:44;;;;;;;4.35;2.78;;;;;;;;;;5078007;28;20059;-63
2023/03/12 04:22:10;;;;;;;3.72;2.90;;;;;;;;;;5052001;28;20163;-63
2023/03/12 04:24:37;;;;;;;4.07;3.20;;;;;;;;;;5042334;28;20053;-64
2023/03/12 04:27:03;;;;;;;3.90;2.45;;;;;;;;;;5053180;28;20095;-63
2023/03/12 04:29:30;;;;;;;7.35;2.95;;;;;;;;;;5067482;28;20082;-63
2023/03/12 04:31:56;;;;;;;4.78;2.97;;;;;;;;;;5054632;28;20553;-63
2023/03/12 04:34:22;;;;;;;5.35;3.00;;;;;;;;;;5044084;28;20576;-62
2023/03/12 04:36:48;;;;;;;9.00;2.90;;;;;;;;;;5044413;28;20535;-63
2023/03/12 04:39:16;;;;;;;4.82;3.17;;;;;;;;;;5066330;28;20519;-63
2023/03/12 04:41:42;;;;;;;5.07;3.22;;;;;;;;;;5075754;28;20052;-63
2023/03/12 04:44:09;;;;;;;5.78;3.65;;;;;;;;;;5052032;28;20057;-64
2023/03/12 04:46:38;;;;;;;4.60;3.05;;;;;;;;;;5063999;28;20511;-62
2023/03/12 04:49:04;;;;;;;5.68;3.50;;;;;;;;;;5057506;28;20136;-63
2023/03/12 04:51:31;;;;;;;6.63;2.80;;;;;;;;;;5055581;28;20056;-63
2023/03/12 04:53:57;;;;;;;6.90;3.17;;;;;;;;;;5061381;28;20049;-62
2023/03/12 04:56:24;;;;;;;12.20;3.42;;;;;;;;;;5045925;28;20627;-63
2023/03/12 04:58:50;;;;;;;9.60;3.40;;;;;;;;;;5063030;28;20111;-63
2023/03/12 05:01:27;;;;;;;12.73;4.03;;;;;;;;;;5071832;28;20055;-64
2023/03/12 05:03:54;;;;;;;4.95;3.45;;;;;;;;;;5061637;28;20522;-63
2023/03/12 05:06:22;;;;;;;4.82;3.58;;;;;;;;;;5050229;28;20156;-63
2023/03/12 05:08:48;;;;;;;9.18;3.60;;;;;;;;;;5040962;28;20087;-63
2023/03/12 05:11:15;;;;;;;6.68;4.28;;;;;;;;;;5045662;28;20059;-63
2023/03/12 05:13:42;;;;;;;5.30;3.47;;;;;;;;;;5067945;28;20055;-63
2023/03/12 05:16:08;;;;;;;6.55;4.00;;;;;;;;;;5047482;28;20042;-64
2023/03/12 05:18:35;;;;;;;10.13;4.05;;;;;;;;;;5062569;28;20060;-63
2023/03/12 05:21:03;;;;;;;7.15;4.35;;;;;;;;;;5056596;28;20054;-63
2023/03/12 05:23:29;;;;;;;7.13;4.50;;;;;;;;;;5042199;28;20064;-63
2023/03/12 05:25:56;;;;;;;8.50;4.70;;;;;;;;;;5051060;28;20053;-63
2023/03/12 05:28:26;;;;;;;9.13;3.90;;;;;;;;;;5050558;28;20232;-63
2023/03/12 05:30:53;;;;;;;10.23;4.80;;;;;;;;;;5050035;28;20052;-63
2023/03/12 05:33:20;;;;;;;7.93;3.95;;;;;;;;;;5056215;28;20054;-64
2023/03/12 05:35:46;;;;;;;7.68;4.10;;;;;;;;;;5041605;28;20050;-64
2023/03/12 05:38:13;;;;;;;7.53;4.40;;;;;;;;;;5053424;28;20503;-63
2023/03/12 05:40:39;;;;;;;9.20;3.92;;;;;;;;;;5061818;28;20132;-63
2023/03/12 05:43:05;;;;;;;9.20;4.45;;;;;;;;;;5060886;28;20060;-63
2023/03/12 05:45:32;;;;;;;6.30;4.45;;;;;;;;;;5059786;28;20045;-64
2023/03/12 05:47:58;;;;;;;7.28;4.07;;;;;;;;;;5056939;28;20649;-63
2023/03/12 05:50:25;;;;;;;5.75;4.10;;;;;;;;;;5050120;28;20049;-63
2023/03/12 05:52:51;;;;;;;6.10;4.15;;;;;;;;;;5056173;28;20195;-63
2023/03/12 05:55:18;;;;;;;6.80;4.30;;;;;;;;;;5058082;28;20056;-63
2023/03/12 05:57:44;;;;;;;7.80;4.25;;;;;;;;;;5046881;28;20083;-63
2023/03/12 06:00:12;;;;;;;4.65;3.33;;;;;;;;;;5051069;28;20037;-63
2023/03/12 06:02:38;;;;;;;10.05;4.53;;;;;;;;;;5041115;28;20115;-64
2023/03/12 06:05:05;;;;;;;8.45;4.22;;;;;;;;;;5050514;28;20060;-63
2023/03/12 06:07:32;;;;;;;10.93;4.55;;;;;;;;;;5044833;28;20056;-64
2023/03/12 06:09:58;;;;;;;7.80;4.03;;;;;;;;;;5044447;28;20057;-63
2023/03/12 06:12:25;;;;;;;8.48;3.90;;;;;;;;;;5055216;28;20044;-63
2023/03/12 06:14:51;;;;;;;7.80;4.32;;;;;;;;;;5052310;28;20696;-64
2023/03/12 06:17:17;;;;;;;7.47;4.13;;;;;;;;;;5054005;28;20064;-64
2023/03/12 06:19:44;;;;;;;8.90;3.97;;;;;;;;;;5056568;28;20088;-62
2023/03/12 06:22:10;;;;;;;9.07;3.85;;;;;;;;;;5051315;28;20433;-62
2023/03/12 06:24:36;;;;;;;6.55;4.05;;;;;;;;;;5044953;28;20049;-64
2023/03/12 06:27:04;;;;;;;8.60;4.32;;;;;;;;;;5044478;28;20054;-62
2023/03/12 06:29:30;;;;;;;9.27;4.50;;;;;;;;;;5058378;28;20057;-63
2023/03/12 06:31:56;;;;;;;21.60;5.50;;;;;;;;;;5064289;28;20459;-63
2023/03/12 06:34:23;;;;;;;10.68;4.35;;;;;;;;;;5054666;28;20060;-63
2023/03/12 06:36:49;;;;;;;6.97;4.00;;;;;;;;;;5044736;28;20115;-62
2023/03/12 06:39:16;;;;;;;8.93;4.13;;;;;;;;;;5044112;28;20053;-63
2023/03/12 06:41:42;;;;;;;13.73;4.90;;;;;;;;;;5044828;28;20057;-62
2023/03/12 06:44:09;;;;;;;6.60;4.55;;;;;;;;;;5044266;28;20405;-63
2023/03/12 06:46:35;;;;;;;6.55;3.95;;;;;;;;;;5064062;28;20142;-63
2023/03/12 06:49:02;;;;;;;11.90;5.28;;;;;;;;;;5064194;28;20053;-64
2023/03/12 06:51:28;;;;;;;8.65;5.20;;;;;;;;;;5055219;28;20183;-62
2023/03/12 06:53:55;;;;;;;11.20;6.35;;;;;;;;;;5062228;28;20538;-62
2023/03/12 06:56:21;;;;;;;9.95;5.95;;;;;;;;;;5059937;28;20579;-63
2023/03/12 06:58:48;;;;;;;16.95;5.47;;;;;;;;;;5046788;28;20472;-62
2023/03/12 07:01:15;;;;;;;8.35;5.03;;;;;;;;;;5044029;28;20520;-63
2023/03/12 07:03:41;;;;;;;13.48;6.05;;;;;;;;;;5043531;28;20543;-62
2023/03/12 07:06:14;;;;;;;8.85;5.30;;;;;;;;;;5052272;28;20463;-63
2023/03/12 07:08:41;;;;;;;9.77;5.28;;;;;;;;;;5063480;28;20491;-62
2023/03/12 07:11:08;;;;;;;11.02;5.70;;;;;;;;;;5063067;28;20057;-63
2023/03/12 07:13:35;;;;;;;8.55;5.78;;;;;;;;;;5060115;28;20088;-63
2023/03/12 07:16:02;;;;;;;12.40;5.53;;;;;;;;;;5063273;28;20099;-62
2023/03/12 07:18:28;;;;;;;10.55;5.28;;;;;;;;;;5064582;28;20053;-63
2023/03/12 07:20:55;;;;;;;10.30;5.60;;;;;;;;;;5055208;28;20057;-64
2023/03/12 07:23:22;;;;;;;9.95;5.85;;;;;;;;;;5049204;28;20426;-62
2023/03/12 07:25:48;;;;;;;9.93;6.20;;;;;;;;;;5053784;28;20049;-61
2023/03/12 07:28:15;;;;;;;12.70;5.93;;;;;;;;;;5063131;28;20049;-62
2023/03/12 07:30:41;;;;;;;8.13;5.93;;;;;;;;;;5059106;28;20054;-62
2023/03/12 07:33:09;;;;;;;9.38;6.00;;;;;;;;;;5063390;28;20059;-64
2023/03/12 07:35:37;;;;;;;12.50;6.10;;;;;;;;;;5059506;28;20073;-63
2023/03/12 07:38:04;;;;;;;10.77;7.50;;;;;;;;;;5059232;28;21021;-62
2023/03/12 07:40:31;;;;;;;9.70;6.05;;;;;;;;;;5060344;28;20049;-62
2023/03/12 07:42:57;;;;;;;11.63;6.22;;;;;;;;;;5056896;28;20052;-62
2023/03/12 07:45:23;;;;;;;7.85;5.93;;;;;;;;;;5060327;28;20107;-62
2023/03/12 07:47:50;;;;;;;8.77;5.65;;;;;;;;;;5061451;28;20053;-62
2023/03/12 07:50:17;;;;;;;10.07;6.07;;;;;;;;;;5061036;28;20422;-62
2023/03/12 07:52:44;;;;;;;9.57;6.85;;;;;;;;;;5053243;28;20061;-63
2023/03/12 07:55:10;;;;;;;11.32;6.85;;;;;;;;;;5061078;28;20062;-62
2023/03/12 07:57:37;;;;;;;17.02;7.65;;;;;;;;;;5082096;28;20049;-62
2023/03/12 08:00:06;;;;;;;12.55;6.75;;;;;;;;;;5043384;28;20069;-63
2023/03/12 08:02:33;;;;;;;12.60;7.55;;;;;;;;;;5048307;28;20532;-62
2023/03/12 08:04:59;;;;;;;12.90;8.75;;;;;;;;;;5057187;28;20085;-62
2023/03/12 08:07:31;;;;;;;13.77;7.88;;;;;;;;;;5043102;28;20509;-63
2023/03/12 08:09:58;;;;;;;9.63;7.93;;;;;;;;;;5045624;28;20199;-63
2023/03/12 08:12:24;;;;;;;12.38;8.35;;;;;;;;;;5060525;28;20529;-63
2023/03/12 08:14:51;;;;;;;11.48;7.50;;;;;;;;;;5062451;28;20053;-62
2023/03/12 08:17:17;;;;;;;11.93;7.38;;;;;;;;;;5048155;28;20053;-63
2023/03/12 08:19:43;;;;;;;10.32;7.75;;;;;;;;;;5054736;28;20140;-63
2023/03/12 08:22:10;;;;;;;14.52;7.97;;;;;;;;;;5062800;28;20135;-62
2023/03/12 08:24:36;;;;;;;13.82;7.68;;;;;;;;;;5050168;28;20508;-63
2023/03/12 08:27:03;;;;;;;13.20;7.95;;;;;;;;;;5045667;28;20052;-64
2023/03/12 08:29:29;;;;;;;9.50;7.60;;;;;;;;;;5046905;28;20500;-63
2023/03/12 08:31:55;;;;;;;12.93;8.05;;;;;;;;;;5044378;28;20046;-62
2023/03/12 08:34:30;;;;;;;12.32;7.68;;;;;;;;;;5049060;28;20077;-62
2023/03/12 08:36:56;;;;;;;11.38;8.32;;;;;;;;;;5044327;28;20568;-62
2023/03/12 08:39:23;;;;;;;14.65;8.30;;;;;;;;;;5070509;28;20051;-62
2023/03/12 08:41:54;;;;;;;14.20;8.77;;;;;;;;;;5069454;28;20049;-61
2023/03/12 08:44:21;;;;;;;13.85;8.48;;;;;;;;;;5054509;28;20514;-62
2023/03/12 08:46:47;;;;;;;11.50;8.68;;;;;;;;;;5057692;28;20049;-62
2023/03/12 08:49:13;;;;;;;16.33;9.80;;;;;;;;;;5049368;28;20515;-62
2023/03/12 08:51:40;;;;;;;16.52;9.55;;;;;;;;;;5045492;28;20519;-62
2023/03/12 08:54:07;;;;;;;15.35;9.60;;;;;;;;;;5054339;28;20049;-62
2023/03/12 08:56:37;;;;;;;15.50;9.35;;;;;;;;;;5050262;28;20539;-61
2023/03/12 08:59:04;;;;;;;15.85;10.68;;;;;;;;;;5050392;28;20132;-62
2023/03/12 09:01:30;;;;;;;14.95;9.13;;;;;;;;;;5060040;28;20061;-62
2023/03/12 09:03:56;;;;;;;21.70;10.10;;;;;;;;;;5050532;28;20053;-63
2023/03/12 09:06:23;;;;;;;16.30;10.55;;;;;;;;;;5050122;28;20049;-61
2023/03/12 09:08:50;;;;;;;16.17;10.43;;;;;;;;;;5068519;28;20484;-61
2023/03/12 09:11:17;;;;;;;16.38;11.25;;;;;;;;;;5059821;28;20569;-62
2023/03/12 09:13:43;;;;;;;19.48;12.73;;;;;;;;;;5058218;28;20065;-62
2023/03/12 09:16:30;;;;;;;23.63;11.60;;;;;;;;;;5053963;28;20064;-62
2023/03/12 09:18:56;;;;;;;20.40;13.32;;;;;;;;;;5061908;28;20061;-61
2023/03/12 09:21:23;;;;;;;23.30;13.73;;;;;;;;;;5061970;28;20468;-62
2023/03/12 09:23:49;;;;;;;20.67;13.05;;;;;;;;;;5049722;28;20466;-61
2023/03/12 09:26:15;;;;;;;21.30;13.63;;;;;;;;;;5057485;28;20057;-61
2023/03/12 09:28:43;;;;;;;26.10;14.93;;;;;;;;;;5055660;28;20068;-61
2023/03/12 09:31:10;;;;;;;24.23;13.43;;;;;;;;;;5046128;28;20045;-62
2023/03/12 09:33:37;;;;;;;25.63;14.27;;;;;;;;;;5062148;28;20057;-61
2023/03/12 09:36:04;;;;;;;22.58;14.68;;;;;;;;;;5049141;28;20084;-61
2023/03/12 09:38:31;;;;;;;26.40;14.98;;;;;;;;;;5041886;28;20126;-61
2023/03/12 09:40:57;;;;;;;24.33;14.85;;;;;;;;;;5054488;28;20064;-60
2023/03/12 09:43:44;;;;;;;30.45;16.25;;;;;;;;;;5049324;28;20085;-61
2023/03/12 09:46:14;;;;;;;34.72;17.02;;;;;;;;;;5066079;28;20144;-61
2023/03/12 09:48:40;;;;;;;30.08;17.60;;;;;;;;;;5045940;28;20054;-61
2023/03/12 09:51:16;;;;;;;35.95;19.80;;;;;;;;;;5045323;28;20041;-61
2023/03/12 09:53:46;;;;;;;34.33;19.50;;;;;;;;;;5044790;28;20596;-61
2023/03/12 09:56:16;;;;;;;36.53;19.77;;;;;;;;;;5054784;28;20061;-61
2023/03/12 09:58:46;;;;;;;33.67;18.58;;;;;;;;;;5057507;28;20060;-60
2023/03/12 10:01:16;;;;;;;35.88;16.88;;;;;;;;;;5048404;28;20614;-60
2023/03/12 10:03:45;;;;;;;33.70;18.83;;;;;;;;;;5044348;28;20111;-61
2023/03/12 10:06:18;;;;;;;41.08;19.17;;;;;;;;;;5061218;28;20053;-60
2023/03/12 10:08:59;;;;;;;36.83;19.35;;;;;;;;;;5044353;28;20211;-61
2023/03/12 10:11:35;;;;;;;41.35;19.48;;;;;;;;;;5056378;28;20050;-59
2023/03/12 10:14:20;;;;;;;38.28;20.45;;;;;;;;;;5047281;28;20049;-61
2023/03/12 10:17:09;;;;;;;43.47;20.98;;;;;;;;;;5062435;28;20053;-60
2023/03/12 10:19:41;;;;;;;37.20;18.92;;;;;;;;;;5054496;28;20053;-61
2023/03/12 10:22:26;;;;;;;44.85;19.73;;;;;;;;;;5058341;28;20427;-60
2023/03/12 10:25:05;;;;;;;43.45;22.73;;;;;;;;;;5075199;28;20053;-61
2023/03/12 10:27:34;;;;;;;40.38;19.98;;;;;;;;;;5056928;28;20381;-62
2023/03/12 10:30:01;;;;;;;44.35;22.98;;;;;;;;;;5050222;28;20111;-60
2023/03/12 10:32:41;;;;;;;52.70;21.40;;;;;;;;;;5052184;28;20046;-61
2023/03/12 10:35:15;;;;;;;39.45;21.67;;;;;;;;;;5050471;28;20135;-62
2023/03/12 10:37:42;;;;;;;40.75;20.58;;;;;;;;;;5047548;28;20750;-61
2023/03/12 10:40:18;;;;;;;40.78;21.25;;;;;;;;;;5051419;28;20049;-61
2023/03/12 10:42:45;;;;;;;41.08;20.33;;;;;;;;;;5050980;28;20052;-61
2023/03/12 10:45:41;;;;;;;40.15;20.58;;;;;;;;;;5052984;28;20061;-60
2023/03/12 10:48:10;;;;;;;46.20;21.05;;;;;;;;;;5029728;28;20504;-61
2023/03/12 10:50:38;;;;;;;43.63;19.92;;;;;;;;;;5026696;28;20054;-60
2023/03/12 10:53:31;;;;;;;37.08;18.88;;;;;;;;;;5024943;28;20046;-62
2023/03/12 10:56:03;;;;;;;35.78;17.73;;;;;;;;;;5024842;28;20127;-61
2023/03/12 10:58:31;;;;;;;45.25;20.00;;;;;;;;;;5021666;28;20076;-63
2023/03/12 11:00:58;;;;;;;40.17;18.00;;;;;;;;;;5023164;28;20046;-61
2023/03/12 11:03:26;;;;;;;36.50;18.10;;;;;;;;;;5026287;28;20058;-61
2023/03/12 11:05:53;;;;;;;36.40;17.48;;;;;;;;;;5023795;28;20060;-61
2023/03/12 11:08:20;;;;;;;40.15;19.50;;;;;;;;;;5036260;28;20125;-60
2023/03/12 11:10:46;;;;;;;41.88;18.70;;;;;;;;;;5029733;28;20156;-61
2023/03/12 11:13:21;;;;;;;44.35;18.42;;;;;;;;;;5021259;28;20528;-60
2023/03/12 11:15:48;;;;;;;42.25;20.17;;;;;;;;;;5030035;28;20054;-61
2023/03/12 11:18:17;;;;;;;36.78;17.08;;;;;;;;;;5018665;28;20166;-61
2023/03/12 11:20:44;;;;;;;36.55;16.58;;;;;;;;;;5020351;28;20599;-60
2023/03/12 11:23:15;;;;;;;38.38;16.42;;;;;;;;;;5020761;28;20602;-61
2023/03/12 11:25:41;;;;;;;43.30;18.05;;;;;;;;;;5060588;28;20521;-60
2023/03/12 11:28:13;;;;;;;40.78;17.83;;;;;;;;;;5060609;28;20465;-60
2023/03/12 11:30:40;;;;;;;44.50;16.38;;;;;;;;;;5059616;28;20643;-60
2023/03/12 11:33:08;;;;;;;38.38;18.17;;;;;;;;;;5063848;28;20076;-60
2023/03/12 11:35:57;;;;;;;49.00;15.30;;;;;;;;;;5059484;28;20041;-61
2023/03/12 11:38:26;;;;;;;46.95;17.10;;;;;;;;;;5063357;28;20485;-61
2023/03/12 11:40:59;;;;;;;45.75;16.10;;;;;;;;;;5063508;28;20050;-61
2023/03/12 11:43:25;;;;;;;34.55;15.80;;;;;;;;;;5063603;28;20137;-60
2023/03/12 11:46:22;;;;;;;31.40;12.82;;;;;;;;;;5063574;28;20271;-62
2023/03/12 11:48:54;;;;;;;29.95;13.68;;;;;;;;;;5062223;28;20556;-60
2023/03/12 11:51:29;;;;;;;39.13;14.80;;;;;;;;;;5063464;28;20553;-60
2023/03/12 11:54:09;;;;;;;29.20;12.88;;;;;;;;;;5061276;28;20140;-61
2023/03/12 11:56:38;;;;;;;47.75;15.25;;;;;;;;;;5056423;28;20568;-60
2023/03/12 11:59:04;;;;;;;57.83;23.90;;;;;;;;;;5065315;28;20061;-61
2023/03/12 12:01:30;;;;;;;42.35;15.82;;;;;;;;;;5058613;28;20057;-62
2023/03/12 12:04:03;;;;;;;48.60;17.83;;;;;;;;;;5046961;28;20144;-61
2023/03/12 12:06:41;;;;;;;35.22;11.75;;;;;;;;;;5061739;28;20570;-60
2023/03/12 12:09:20;;;;;;;26.38;10.02;;;;;;;;;;5063053;28;20080;-62
2023/03/12 12:11:46;;;;;;;32.85;10.95;;;;;;;;;;5062423;28;20523;-60
2023/03/12 12:14:22;;;;;;;47.28;10.38;;;;;;;;;;5063250;28;20533;-61
2023/03/12 12:16:48;;;;;;;;;;;;;;;;;;5062484;28;20049;-62
2023/03/12 12:19:14;;;;;;;33.55;9.00;;;;;;;;;;5042127;28;46181;-62
2023/03/12 12:21:50;;;;;;;36.10;9.50;;;;;;;;;;5042612;28;20045;-61
2023/03/12 12:24:35;;;;;;;28.23;8.48;;;;;;;;;;5042767;28;20054;-61
2023/03/12 12:27:05;;;;;;;22.17;6.75;;;;;;;;;;5047166;28;20503;-62
2023/03/12 12:29:32;;;;;;;24.35;7.65;;;;;;;;;;5063120;28;20155;-60
2023/03/12 12:32:03;;;;;;;36.72;7.90;;;;;;;;;;5062714;28;20069;-61
2023/03/12 12:34:29;;;;;;;34.13;8.85;;;;;;;;;;5067914;28;20058;-61
2023/03/12 12:37:02;;;;;;;33.08;8.80;;;;;;;;;;5059784;28;20053;-62
2023/03/12 12:39:31;;;;;;;28.42;7.82;;;;;;;;;;5066271;28;20056;-61
2023/03/12 12:42:01;;;;;;;30.45;7.72;;;;;;;;;;5057866;28;20526;-60
2023/03/12 12:44:46;;;;;;;30.50;7.72;;;;;;;;;;5061548;28;20049;-60
2023/03/12 12:47:17;;;;;;;30.05;8.02;;;;;;;;;;5062393;28;20059;-61
2023/03/12 12:49:48;;;;;;;36.15;10.20;;;;;;;;;;5062930;28;20576;-60
2023/03/12 12:52:16;;;;;;;35.08;8.95;;;;;;;;;;5060467;28;20491;-59
2023/03/12 12:55:02;;;;;;;31.08;8.15;;;;;;;;;;5068476;28;20107;-60
2023/03/12 12:57:38;;;;;;;30.55;7.53;;;;;;;;;;5052407;28;20519;-60
2023/03/12 13:00:08;;;;;;;36.35;7.90;;;;;;;;;;5059532;28;20057;-62
2023/03/12 13:02:37;;;;;;;29.75;8.25;;;;;;;;;;5056794;28;20526;-60
2023/03/12 13:05:16;;;;;;;44.45;9.57;;;;;;;;;;5048194;28;20642;-60
2023/03/12 13:07:42;;;;;;;36.42;8.27;;;;;;;;;;5062634;28;20049;-61
2023/03/12 13:10:29;;;;;;;38.70;9.25;;;;;;;;;;5061116;28;20056;-61
2023/03/12 13:12:55;;;;;;;42.80;10.80;;;;;;;;;;5062811;28;20052;-61
2023/03/12 13:15:28;;;;;;;32.28;8.50;;;;;;;;;;5053805;28;20105;-64
2023/03/12 13:17:54;;;;;;;32.50;7.65;;;;;;;;;;5048735;28;20050;-63
2023/03/12 13:20:22;;;;;;;27.42;7.65;;;;;;;;;;5046240;28;20060;-63
2023/03/12 13:22:52;;;;;;;34.58;8.63;;;;;;;;;;5052387;28;20108;-63
2023/03/12 13:25:37;;;;;;;45.38;9.13;;;;;;;;;;5053454;28;20057;-62
2023/03/12 13:28:22;;;;;;;42.03;9.70;;;;;;;;;;5060928;28;20049;-61
2023/03/12 13:30:50;;;;;;;39.85;10.82;;;;;;;;;;5059946;28;20437;-61
2023/03/12 13:33:20;;;;;;;30.70;7.18;;;;;;;;;;5059700;28;20059;-61
2023/03/12 13:36:00;;;;;;;35.00;8.48;;;;;;;;;;5074110;28;20082;-63
2023/03/12 13:38:34;;;;;;;28.95;7.80;;;;;;;;;;5045627;28;20471;-61
2023/03/12 13:41:02;;;;;;;37.90;7.70;;;;;;;;;;5048002;28;20085;-61
2023/03/12 13:43:30;;;;;;;25.33;6.47;;;;;;;;;;5052968;28;20064;-62
2023/03/12 13:46:20;;;;;;;36.17;7.90;;;;;;;;;;5068376;28;20586;-63
2023/03/12 13:48:47;;;;;;;35.25;9.85;;;;;;;;;;5062490;28;20147;-61
2023/03/12 13:51:15;;;;;;;38.33;7.28;;;;;;;;;;5067739;28;20050;-62
2023/03/12 13:53:46;;;;;;;32.95;7.80;;;;;;;;;;5064395;28;20061;-62
2023/03/12 13:56:15;;;;;;;31.33;5.72;;;;;;;;;;5065623;28;20091;-63
2023/03/12 13:58:53;;;;;;;23.40;5.85;;;;;;;;;;5064732;28;20084;-63
2023/03/12 14:01:20;;;;;;;35.45;7.07;;;;;;;;;;5065049;28;20128;-62
2023/03/12 14:03:53;;;;;;;36.63;7.38;;;;;;;;;;5065674;28;20052;-62
2023/03/12 14:06:21;;;;;;;27.00;6.90;;;;;;;;;;5064796;28;20507;-62
2023/03/12 14:09:03;;;;;;;42.47;16.42;;;;;;;;;;5065945;28;20045;-63
2023/03/12 14:11:32;;;;;;;24.42;6.97;;;;;;;;;;5073027;28;20466;-61
2023/03/12 14:14:17;;;;;;;36.90;7.93;;;;;;;;;;5085048;28;20052;-64
2023/03/12 14:16:45;;;;;;;36.70;7.85;;;;;;;;;;5064818;28;20591;-64
2023/03/12 14:19:13;;;;;;;37.30;5.72;;;;;;;;;;5059003;28;20487;-65
2023/03/12 14:21:41;;;;;;;22.35;5.10;;;;;;;;;;5044379;28;20055;-63
2023/03/12 14:24:13;;;;;;;23.38;4.03;;;;;;;;;;5063027;28;20055;-64
2023/03/12 14:26:40;;;;;;;25.58;5.80;;;;;;;;;;5051622;28;20049;-63
2023/03/12 14:29:06;;;;;;;21.48;5.20;;;;;;;;;;5066567;28;20045;-63
2023/03/12 14:31:34;;;;;;;24.52;6.50;;;;;;;;;;5064752;28;20061;-63
2023/03/12 14:34:04;;;;;;;27.73;6.18;;;;;;;;;;5073243;28;20044;-64
2023/03/12 14:36:36;;;;;;;23.90;4.75;;;;;;;;;;5081054;28;20076;-63
2023/03/12 14:39:22;;;;;;;27.70;5.25;;;;;;;;;;5065660;28;20087;-64
2023/03/12 14:41:53;;;;;;;17.88;5.25;;;;;;;;;;5066680;28;20177;-64